createdAt,value
2022-09-06T00:00:06.923Z,0.00
2022-09-06T00:01:06.849Z,0.00
2022-09-06T00:02:06.863Z,0.00
2022-09-06T00:03:06.857Z,0.00
2022-09-06T00:04:08.133Z,0.00
2022-09-06T00:05:06.797Z,0.00
2022-09-06T00:06:06.777Z,0.00
2022-09-06T00:07:06.906Z,0.00
2022-09-06T00:08:06.790Z,0.00
2022-09-06T00:09:06.757Z,0.00
2022-09-06T00:10:06.772Z,0.00
2022-09-06T00:11:06.726Z,0.00
2022-09-06T00:12:06.842Z,0.00
2022-09-06T00:13:06.726Z,0.00
2022-09-06T00:14:06.692Z,0.00
2022-09-06T00:15:06.793Z,0.00
2022-09-06T00:16:06.723Z,0.00
2022-09-06T00:17:06.689Z,0.00
2022-09-06T00:18:06.646Z,0.00
2022-09-06T00:19:06.656Z,0.00
2022-09-06T00:20:06.712Z,0.00
2022-09-06T00:21:06.607Z,0.00
2022-09-06T00:22:06.648Z,0.00
2022-09-06T00:23:06.628Z,0.00
2022-09-06T00:24:06.573Z,0.00
2022-09-06T00:25:06.558Z,0.00
2022-09-06T00:26:06.555Z,0.00
2022-09-06T00:27:06.627Z,0.00
2022-09-06T00:28:06.554Z,0.00
2022-09-06T00:29:06.511Z,0.00
2022-09-06T00:30:06.509Z,0.00
2022-09-06T00:31:06.647Z,0.00
2022-09-06T00:32:06.505Z,0.00
2022-09-06T00:33:06.509Z,0.00
2022-09-06T00:34:06.460Z,0.00
2022-09-06T00:35:06.466Z,0.00
2022-09-06T00:36:06.442Z,0.00
2022-09-06T00:37:06.609Z,0.00
2022-09-06T00:38:06.440Z,0.00
2022-09-06T00:39:06.409Z,0.00
2022-09-06T00:40:06.511Z,0.00
2022-09-06T00:41:06.425Z,0.00
2022-09-06T00:42:06.378Z,0.00
2022-09-06T00:43:06.346Z,0.00
2022-09-06T00:44:06.346Z,0.00
2022-09-06T00:45:06.333Z,0.00
2022-09-06T00:46:06.388Z,0.00
2022-09-06T00:47:06.340Z,0.00
2022-09-06T00:48:06.285Z,0.00
2022-09-06T00:49:06.368Z,0.00
2022-09-06T00:50:06.275Z,0.00
2022-09-06T00:51:06.263Z,0.00
2022-09-06T00:52:06.270Z,0.00
2022-09-06T00:53:06.234Z,0.00
2022-09-06T00:54:06.242Z,0.00
2022-09-06T00:55:06.233Z,0.00
2022-09-06T00:56:06.201Z,0.00
2022-09-06T00:57:06.353Z,0.00
2022-09-06T00:58:06.199Z,0.00
2022-09-06T00:59:06.171Z,0.00
2022-09-06T01:00:06.156Z,0.00
2022-09-06T01:01:06.266Z,0.00
2022-09-06T01:02:06.258Z,0.00
2022-09-06T01:03:06.127Z,0.00
2022-09-06T01:04:06.139Z,0.00
2022-09-06T01:05:06.090Z,0.00
2022-09-06T01:06:06.102Z,0.00
2022-09-06T01:07:06.078Z,0.00
2022-09-06T01:08:06.079Z,0.00
2022-09-06T01:09:06.133Z,0.00
2022-09-06T01:10:06.051Z,0.00
2022-09-06T01:11:06.029Z,0.00
2022-09-06T01:12:06.017Z,0.00
2022-09-06T01:13:06.017Z,0.00
2022-09-06T01:14:05.992Z,0.00
2022-09-06T01:15:06.042Z,0.00
2022-09-06T01:16:06.012Z,0.00
2022-09-06T01:17:05.964Z,0.00
2022-09-06T01:18:05.965Z,0.00
2022-09-06T01:19:05.936Z,0.00
2022-09-06T01:20:05.959Z,0.00
2022-09-06T01:21:05.909Z,0.00
2022-09-06T01:22:05.895Z,0.00
2022-09-06T01:23:05.911Z,0.00
2022-09-06T01:24:05.874Z,0.00
2022-09-06T01:25:05.867Z,0.00
2022-09-06T01:26:05.848Z,0.00
2022-09-06T01:27:05.842Z,0.00
2022-09-06T01:28:05.850Z,0.00
2022-09-06T01:29:05.819Z,0.00
2022-09-06T01:30:05.824Z,0.00
2022-09-06T01:31:05.913Z,0.00
2022-09-06T01:32:05.847Z,0.00
2022-09-06T01:33:05.790Z,0.00
2022-09-06T01:34:05.768Z,0.00
2022-09-06T01:35:05.741Z,0.00
2022-09-06T01:36:05.794Z,0.00
2022-09-06T01:37:10.245Z,0.00
2022-09-06T01:38:05.730Z,0.00
2022-09-06T01:39:05.704Z,0.00
2022-09-06T01:40:05.891Z,0.00
2022-09-06T01:41:05.687Z,0.00
2022-09-06T01:42:05.691Z,0.00
2022-09-06T01:43:10.211Z,0.00
2022-09-06T01:44:06.658Z,0.00
2022-09-06T01:45:05.644Z,0.00
2022-09-06T01:46:05.778Z,0.00
2022-09-06T01:47:05.654Z,0.00
2022-09-06T01:48:05.626Z,0.00
2022-09-06T01:49:05.600Z,0.00
2022-09-06T01:50:05.572Z,0.00
2022-09-06T01:51:05.568Z,0.00
2022-09-06T01:52:05.554Z,0.00
2022-09-06T01:53:05.695Z,0.00
2022-09-06T01:54:05.530Z,0.00
2022-09-06T01:55:05.526Z,0.00
2022-09-06T01:56:05.522Z,0.00
2022-09-06T01:57:05.573Z,0.00
2022-09-06T01:58:05.504Z,0.00
2022-09-06T01:59:05.477Z,0.00
2022-09-06T02:00:05.515Z,0.00
2022-09-06T02:01:05.517Z,0.00
2022-09-06T02:02:05.480Z,0.00
2022-09-06T02:03:05.451Z,0.00
2022-09-06T02:04:05.430Z,0.00
2022-09-06T02:05:05.428Z,0.00
2022-09-06T02:06:05.409Z,0.00
2022-09-06T02:07:05.403Z,0.00
2022-09-06T02:08:05.387Z,0.00
2022-09-06T02:09:05.533Z,0.00
2022-09-06T02:10:05.356Z,0.00
2022-09-06T02:11:05.379Z,0.00
2022-09-06T02:12:05.370Z,0.00
2022-09-06T02:13:05.329Z,0.00
2022-09-06T02:14:05.340Z,0.00
2022-09-06T02:15:05.286Z,0.00
2022-09-06T02:16:05.286Z,0.00
2022-09-06T02:17:05.438Z,0.00
2022-09-06T02:18:05.279Z,0.00
2022-09-06T02:19:05.340Z,0.00
2022-09-06T02:20:05.250Z,0.00
2022-09-06T02:21:05.280Z,0.00
2022-09-06T02:22:05.208Z,0.00
2022-09-06T02:23:05.207Z,0.00
2022-09-06T02:24:05.215Z,0.00
2022-09-06T02:25:05.179Z,0.00
2022-09-06T02:26:05.179Z,0.00
2022-09-06T02:27:05.262Z,0.00
2022-09-06T02:28:05.158Z,0.00
2022-09-06T02:29:05.134Z,0.00
2022-09-06T02:30:05.118Z,0.00
2022-09-06T02:31:05.189Z,0.00
2022-09-06T02:32:05.113Z,0.00
2022-09-06T02:33:05.106Z,0.00
2022-09-06T02:34:05.074Z,0.00
2022-09-06T02:35:05.112Z,0.00
2022-09-06T02:36:05.051Z,0.00
2022-09-06T02:37:05.043Z,0.00
2022-09-06T02:38:05.058Z,0.00
2022-09-06T02:39:05.015Z,0.00
2022-09-06T02:40:05.052Z,0.00
2022-09-06T02:41:05.009Z,0.00
2022-09-06T02:42:04.982Z,0.00
2022-09-06T02:43:04.982Z,0.00
2022-09-06T02:44:04.963Z,0.00
2022-09-06T02:45:04.960Z,0.00
2022-09-06T02:46:04.993Z,0.00
2022-09-06T02:47:04.947Z,0.00
2022-09-06T02:48:04.928Z,0.00
2022-09-06T02:49:04.927Z,0.00
2022-09-06T02:50:04.909Z,0.00
2022-09-06T02:51:04.872Z,0.00
2022-09-06T02:52:04.870Z,0.00
2022-09-06T02:53:04.861Z,0.00
2022-09-06T02:54:04.898Z,0.00
2022-09-06T02:55:04.843Z,0.00
2022-09-06T02:56:04.904Z,0.00
2022-09-06T02:57:04.806Z,0.00
2022-09-06T02:58:04.800Z,0.00
2022-09-06T02:59:04.794Z,0.00
2022-09-06T03:00:04.776Z,0.00
2022-09-06T03:01:04.810Z,0.00
2022-09-06T03:02:04.778Z,0.00
2022-09-06T03:03:04.852Z,0.00
2022-09-06T03:04:04.728Z,0.00
2022-09-06T03:05:04.734Z,0.00
2022-09-06T03:06:04.799Z,0.00
2022-09-06T03:07:04.713Z,0.00
2022-09-06T03:08:04.684Z,0.00
2022-09-06T03:09:04.682Z,0.00
2022-09-06T03:10:04.663Z,0.00
2022-09-06T03:11:04.654Z,0.00
2022-09-06T03:12:04.700Z,0.00
2022-09-06T03:13:04.615Z,0.00
2022-09-06T03:14:04.611Z,0.00
2022-09-06T03:15:04.757Z,0.00
2022-09-06T03:16:04.599Z,0.00
2022-09-06T03:17:04.689Z,0.00
2022-09-06T03:18:04.601Z,0.00
2022-09-06T03:19:04.646Z,0.00
2022-09-06T03:20:04.549Z,0.00
2022-09-06T03:21:04.558Z,0.00
2022-09-06T03:22:04.529Z,0.00
2022-09-06T03:23:04.673Z,0.00
2022-09-06T03:24:04.491Z,0.00
2022-09-06T03:25:04.507Z,0.00
2022-09-06T03:26:04.469Z,0.00
2022-09-06T03:27:04.461Z,0.00
2022-09-06T03:28:04.450Z,0.00
2022-09-06T03:29:04.459Z,0.00
2022-09-06T03:30:04.515Z,0.00
2022-09-06T03:31:04.526Z,0.00
2022-09-06T03:32:04.406Z,0.00
2022-09-06T03:33:04.466Z,0.00
2022-09-06T03:34:07.980Z,0.00
2022-09-06T03:35:05.368Z,0.00
2022-09-06T03:36:04.385Z,0.00
2022-09-06T03:37:04.347Z,0.00
2022-09-06T03:38:04.344Z,0.00
2022-09-06T03:39:04.330Z,0.00
2022-09-06T03:40:04.357Z,0.00
2022-09-06T03:41:04.309Z,0.00
2022-09-06T03:42:04.353Z,0.00
2022-09-06T03:43:04.283Z,0.00
2022-09-06T03:44:04.286Z,0.00
2022-09-06T03:45:04.302Z,0.00
2022-09-06T03:46:04.313Z,0.00
2022-09-06T03:47:04.235Z,0.00
2022-09-06T03:48:04.227Z,0.00
2022-09-06T03:49:04.245Z,0.00
2022-09-06T03:50:04.203Z,0.00
2022-09-06T03:51:04.224Z,0.00
2022-09-06T03:52:04.182Z,0.00
2022-09-06T03:53:04.234Z,0.00
2022-09-06T03:54:04.158Z,0.00
2022-09-06T03:55:04.161Z,0.00
2022-09-06T03:56:04.143Z,0.00
2022-09-06T03:57:04.132Z,0.00
2022-09-06T03:58:04.107Z,0.00
2022-09-06T03:59:04.096Z,0.00
2022-09-06T04:00:04.151Z,0.00
2022-09-06T04:01:04.098Z,0.00
2022-09-06T04:02:04.090Z,4.00
2022-09-06T04:03:04.044Z,0.00
2022-09-06T04:04:04.055Z,0.00
2022-09-06T04:05:04.081Z,4.00
2022-09-06T04:06:04.097Z,0.00
2022-09-06T04:07:04.046Z,4.00
2022-09-06T04:08:03.988Z,4.00
2022-09-06T04:09:03.973Z,4.00
2022-09-06T04:10:04.014Z,4.00
2022-09-06T04:11:03.955Z,4.00
2022-09-06T04:12:03.952Z,4.00
2022-09-06T04:13:03.946Z,4.00
2022-09-06T04:14:03.919Z,8.00
2022-09-06T04:15:03.947Z,8.00
2022-09-06T04:16:03.903Z,8.00
2022-09-06T04:17:04.001Z,8.00
2022-09-06T04:18:08.565Z,12.00
2022-09-06T04:19:04.868Z,12.00
2022-09-06T04:20:03.885Z,12.00
2022-09-06T04:21:03.862Z,16.00
2022-09-06T04:22:03.827Z,20.00
2022-09-06T04:23:03.883Z,20.00
2022-09-06T04:24:03.802Z,20.00
2022-09-06T04:25:03.798Z,24.00
2022-09-06T04:26:03.803Z,24.00
2022-09-06T04:27:03.784Z,24.00
2022-09-06T04:28:03.769Z,28.00
2022-09-06T04:29:03.764Z,28.00
2022-09-06T04:30:03.738Z,32.00
2022-09-06T04:31:05.149Z,32.00
2022-09-06T04:32:03.810Z,36.00
2022-09-06T04:33:03.721Z,40.00
2022-09-06T04:34:03.704Z,40.00
2022-09-06T04:35:03.677Z,40.00
2022-09-06T04:36:03.671Z,48.00
2022-09-06T04:37:03.654Z,48.00
2022-09-06T04:38:03.649Z,52.00
2022-09-06T04:39:03.876Z,56.00
2022-09-06T04:40:03.716Z,56.00
2022-09-06T04:41:03.605Z,64.00
2022-09-06T04:42:03.620Z,68.00
2022-09-06T04:43:03.591Z,72.00
2022-09-06T04:44:03.589Z,80.00
2022-09-06T04:45:03.587Z,80.00
2022-09-06T04:46:03.672Z,84.00
2022-09-06T04:47:07.421Z,92.00
2022-09-06T04:48:04.540Z,96.00
2022-09-06T04:49:03.529Z,96.00
2022-09-06T04:50:03.532Z,104.00
2022-09-06T04:51:03.518Z,100.00
2022-09-06T04:52:03.497Z,104.00
2022-09-06T04:53:03.480Z,104.00
2022-09-06T04:54:03.486Z,104.00
2022-09-06T04:55:03.459Z,108.00
2022-09-06T04:56:03.454Z,112.00
2022-09-06T04:57:03.531Z,124.00
2022-09-06T04:58:03.437Z,124.00
2022-09-06T04:59:03.408Z,120.00
2022-09-06T05:00:03.431Z,132.00
2022-09-06T05:01:03.433Z,136.00
2022-09-06T05:02:03.459Z,140.00
2022-09-06T05:03:03.355Z,144.00
2022-09-06T05:04:03.400Z,152.00
2022-09-06T05:05:03.335Z,164.00
2022-09-06T05:06:03.331Z,188.00
2022-09-06T05:07:03.473Z,196.00
2022-09-06T05:08:03.330Z,200.00
2022-09-06T05:09:03.295Z,172.00
2022-09-06T05:10:03.282Z,172.00
2022-09-06T05:11:03.265Z,172.00
2022-09-06T05:12:03.256Z,180.00
2022-09-06T05:13:03.256Z,192.00
2022-09-06T05:14:03.230Z,204.00
2022-09-06T05:15:03.225Z,212.00
2022-09-06T05:16:03.265Z,220.00
2022-09-06T05:17:03.197Z,228.00
2022-09-06T05:18:03.204Z,228.00
2022-09-06T05:19:03.180Z,232.00
2022-09-06T05:20:03.164Z,216.00
2022-09-06T05:21:03.154Z,216.00
2022-09-06T05:22:03.140Z,216.00
2022-09-06T05:23:03.130Z,232.00
2022-09-06T05:24:03.139Z,260.00
2022-09-06T05:25:03.107Z,276.00
2022-09-06T05:26:03.107Z,268.00
2022-09-06T05:27:03.101Z,252.00
2022-09-06T05:28:03.084Z,252.00
2022-09-06T05:29:03.080Z,256.00
2022-09-06T05:30:03.059Z,264.00
2022-09-06T05:31:03.042Z,276.00
2022-09-06T05:32:03.105Z,288.00
2022-09-06T05:33:03.020Z,312.00
2022-09-06T05:34:03.019Z,320.00
2022-09-06T05:35:03.010Z,324.00
2022-09-06T05:36:02.999Z,332.00
2022-09-06T05:37:02.985Z,344.00
2022-09-06T05:38:02.962Z,356.00
2022-09-06T05:39:02.950Z,360.00
2022-09-06T05:40:03.029Z,376.00
2022-09-06T05:41:02.925Z,384.00
2022-09-06T05:42:02.914Z,388.00
2022-09-06T05:43:02.898Z,400.00
2022-09-06T05:44:02.896Z,400.00
2022-09-06T05:45:02.878Z,420.00
2022-09-06T05:46:02.945Z,436.00
2022-09-06T05:47:02.855Z,460.00
2022-09-06T05:48:02.847Z,476.00
2022-09-06T05:49:02.827Z,484.00
2022-09-06T05:50:02.820Z,492.00
2022-09-06T05:51:02.824Z,488.00
2022-09-06T05:52:02.803Z,480.00
2022-09-06T05:53:02.786Z,480.00
2022-09-06T05:54:02.778Z,472.00
2022-09-06T05:55:02.759Z,476.00
2022-09-06T05:56:02.760Z,464.00
2022-09-06T05:57:02.755Z,476.00
2022-09-06T05:58:02.731Z,484.00
2022-09-06T05:59:02.720Z,504.00
2022-09-06T06:00:02.704Z,508.00
2022-09-06T06:01:02.772Z,504.00
2022-09-06T06:02:06.702Z,524.00
2022-09-06T06:03:02.675Z,536.00
2022-09-06T06:04:02.658Z,536.00
2022-09-06T06:05:02.646Z,532.00
2022-09-06T06:06:02.652Z,516.00
2022-09-06T06:07:02.634Z,504.00
2022-09-06T06:08:02.628Z,500.00
2022-09-06T06:09:02.601Z,500.00
2022-09-06T06:10:02.590Z,496.00
2022-09-06T06:11:02.582Z,500.00
2022-09-06T06:12:02.564Z,512.00
2022-09-06T06:13:02.574Z,516.00
2022-09-06T06:14:02.556Z,512.00
2022-09-06T06:15:02.550Z,496.00
2022-09-06T06:16:02.545Z,464.00
2022-09-06T06:17:02.607Z,460.00
2022-09-06T06:18:02.500Z,436.00
2022-09-06T06:19:02.499Z,440.00
2022-09-06T06:20:02.479Z,420.00
2022-09-06T06:21:02.466Z,424.00
2022-09-06T06:22:02.449Z,396.00
2022-09-06T06:23:02.445Z,436.00
2022-09-06T06:24:02.446Z,500.00
2022-09-06T06:25:02.421Z,532.00
2022-09-06T06:26:02.404Z,500.00
2022-09-06T06:27:02.405Z,544.00
2022-09-06T06:28:02.386Z,560.00
2022-09-06T06:29:02.376Z,560.00
2022-09-06T06:30:02.374Z,564.00
2022-09-06T06:31:02.381Z,556.00
2022-09-06T06:32:02.469Z,580.00
2022-09-06T06:33:02.331Z,596.00
2022-09-06T06:34:02.330Z,620.00
2022-09-06T06:35:02.319Z,612.00
2022-09-06T06:36:02.291Z,624.00
2022-09-06T06:37:02.278Z,624.00
2022-09-06T06:38:02.265Z,660.00
2022-09-06T06:39:02.255Z,660.00
2022-09-06T06:40:02.349Z,700.00
2022-09-06T06:41:06.554Z,724.00
2022-09-06T06:42:02.235Z,700.00
2022-09-06T06:43:02.207Z,724.00
2022-09-06T06:44:02.193Z,716.00
2022-09-06T06:45:02.197Z,716.00
2022-09-06T06:46:02.241Z,720.00
2022-09-06T06:47:02.176Z,708.00
2022-09-06T06:48:02.160Z,720.00
2022-09-06T06:49:02.167Z,704.00
2022-09-06T06:50:02.130Z,748.00
2022-09-06T06:51:02.132Z,784.00
2022-09-06T06:52:02.127Z,816.00
2022-09-06T06:53:02.121Z,820.00
2022-09-06T06:54:02.097Z,824.00
2022-09-06T06:55:02.077Z,836.00
2022-09-06T06:56:02.064Z,864.00
2022-09-06T06:57:02.078Z,880.00
2022-09-06T06:58:02.041Z,900.00
2022-09-06T06:59:02.040Z,932.00
2022-09-06T07:00:02.020Z,956.00
2022-09-06T07:01:02.084Z,968.00
2022-09-06T07:02:02.132Z,980.00
2022-09-06T07:03:02.001Z,980.00
2022-09-06T07:04:01.980Z,984.00
2022-09-06T07:05:02.147Z,1000.00
2022-09-06T07:08:02.959Z,1052.00
2022-09-06T07:09:01.912Z,1076.00
2022-09-06T07:11:02.892Z,1156.00
2022-09-06T07:12:01.879Z,1172.00
2022-09-06T07:13:01.870Z,1216.00
2022-09-06T07:14:01.871Z,1208.00
2022-09-06T07:15:01.853Z,1240.00
2022-09-06T07:16:01.879Z,1316.00
2022-09-06T07:17:04.108Z,1348.00
2022-09-06T07:18:01.801Z,1376.00
2022-09-06T07:19:01.874Z,1396.00
2022-09-06T07:20:17.129Z,1392.00
2022-09-06T07:22:05.262Z,1376.00
2022-09-06T07:24:06.589Z,1500.00
2022-09-06T07:25:01.767Z,1508.00
2022-09-06T07:26:01.719Z,1552.00
2022-09-06T07:28:05.734Z,1488.00
2022-09-06T07:29:01.698Z,1456.00
2022-09-06T07:30:01.692Z,1556.00
2022-09-06T07:31:01.796Z,1616.00
2022-09-06T07:32:16.982Z,1664.00
2022-09-06T07:33:02.658Z,1588.00
2022-09-06T07:34:01.637Z,1436.00
2022-09-06T07:35:01.637Z,1484.00
2022-09-06T07:36:01.597Z,1532.00
2022-09-06T07:37:01.622Z,1660.00
2022-09-06T07:38:01.579Z,1656.00
2022-09-06T07:39:01.580Z,1548.00
2022-09-06T07:40:01.684Z,1516.00
2022-09-06T07:41:01.587Z,1528.00
2022-09-06T07:42:01.558Z,1612.00
2022-09-06T07:43:01.530Z,1668.00
2022-09-06T07:44:01.534Z,1720.00
2022-09-06T07:45:01.504Z,1844.00
2022-09-06T07:46:01.536Z,1896.00
2022-09-06T07:48:02.497Z,1976.00
2022-09-06T07:49:01.467Z,1968.00
2022-09-06T07:51:02.448Z,1980.00
2022-09-06T07:53:12.973Z,2000.00
2022-09-06T07:54:26.129Z,2004.00
2022-09-06T07:55:02.395Z,2036.00
2022-09-06T07:56:01.404Z,2180.00
2022-09-06T07:57:01.383Z,2248.00
2022-09-06T07:58:01.362Z,2424.00
2022-09-06T07:59:01.364Z,2364.00
2022-09-06T08:00:01.336Z,2376.00
2022-09-06T08:01:01.431Z,2484.00
2022-09-06T08:02:01.493Z,2448.00
2022-09-06T08:03:01.317Z,2284.00
2022-09-06T08:04:01.302Z,2372.00
2022-09-06T08:05:01.317Z,2436.00
2022-09-06T08:06:09.065Z,2348.00
2022-09-06T08:09:02.260Z,2396.00
2022-09-06T08:10:01.235Z,2460.00
2022-09-06T08:11:01.216Z,2276.00
2022-09-06T08:12:01.211Z,2132.00
2022-09-06T08:13:01.270Z,2012.00
2022-09-06T08:14:01.191Z,2232.00
2022-09-06T08:15:01.187Z,2348.00
2022-09-06T08:16:01.243Z,2400.00
2022-09-06T08:17:01.161Z,2548.00
2022-09-06T08:18:01.236Z,2688.00
2022-09-06T08:19:01.124Z,2804.00
2022-09-06T08:20:01.141Z,2884.00
2022-09-06T08:21:01.127Z,2876.00
2022-09-06T08:22:01.103Z,2664.00
2022-09-06T08:23:01.092Z,2528.00
2022-09-06T08:24:01.174Z,2688.00
2022-09-06T08:25:01.068Z,2544.00
2022-09-06T08:26:01.052Z,2544.00
2022-09-06T08:27:01.118Z,2556.00
2022-09-06T08:28:01.046Z,2668.00
2022-09-06T08:29:01.105Z,2800.00
2022-09-06T08:30:01.018Z,2836.00
2022-09-06T08:31:00.996Z,2820.00
2022-09-06T08:32:01.092Z,2840.00
2022-09-06T08:33:00.972Z,2876.00
2022-09-06T08:34:00.954Z,2640.00
2022-09-06T08:35:01.018Z,2692.00
2022-09-06T08:36:00.924Z,2728.00
2022-09-06T08:37:00.914Z,2744.00
2022-09-06T08:38:00.896Z,2688.00
2022-09-06T08:39:00.898Z,2648.00
2022-09-06T08:40:01.048Z,2620.00
2022-09-06T08:41:00.888Z,2652.00
2022-09-06T08:42:00.858Z,2804.00
2022-09-06T08:43:00.848Z,2916.00
2022-09-06T08:45:01.915Z,3664.00
2022-09-06T08:46:00.814Z,3556.00
2022-09-06T08:47:00.863Z,3528.00
2022-09-06T08:48:00.811Z,3304.00
2022-09-06T08:49:00.780Z,3336.00
2022-09-06T08:50:00.777Z,3564.00
2022-09-06T08:51:00.835Z,3592.00
2022-09-06T08:52:00.739Z,3920.00
2022-09-06T08:53:17.586Z,4216.00
2022-09-06T08:54:01.714Z,4512.00
2022-09-06T08:55:00.697Z,3616.00
2022-09-06T08:56:00.755Z,3496.00
2022-09-06T08:57:00.691Z,3736.00
2022-09-06T08:58:00.700Z,7416.00
2022-09-06T08:59:00.655Z,10804.00
2022-09-06T09:00:00.660Z,18592.00
2022-09-06T09:01:00.788Z,24512.00
2022-09-06T09:02:00.672Z,29280.00
2022-09-06T09:03:00.619Z,16352.00
2022-09-06T09:04:00.629Z,16352.00
2022-09-06T09:05:00.592Z,16736.00
2022-09-06T09:06:00.585Z,12648.00
2022-09-06T09:07:00.597Z,25664.00
2022-09-06T09:08:00.550Z,16960.00
2022-09-06T09:09:00.553Z,27296.00
2022-09-06T09:10:00.546Z,22112.00
2022-09-06T09:11:00.538Z,23456.00
2022-09-06T09:12:00.528Z,21472.00
2022-09-06T09:13:00.497Z,17088.00
2022-09-06T09:14:00.501Z,10488.00
2022-09-06T09:15:00.468Z,9776.00
2022-09-06T09:16:00.521Z,11880.00
2022-09-06T09:17:00.480Z,15648.00
2022-09-06T09:18:00.445Z,11664.00
2022-09-06T09:19:00.437Z,13380.00
2022-09-06T09:20:00.415Z,13048.00
2022-09-06T09:21:00.410Z,22592.00
2022-09-06T09:22:00.649Z,20896.00
2022-09-06T09:23:00.412Z,15168.00
2022-09-06T09:24:00.414Z,15424.00
2022-09-06T09:25:00.372Z,17792.00
2022-09-06T09:26:00.369Z,18880.00
2022-09-06T09:27:00.366Z,16768.00
2022-09-06T09:28:00.335Z,16736.00
2022-09-06T09:29:00.325Z,16768.00
2022-09-06T09:31:01.359Z,14892.00
2022-09-06T09:32:00.379Z,22144.00
2022-09-06T09:33:00.297Z,18752.00
2022-09-06T09:34:00.282Z,7256.00
2022-09-06T09:35:00.298Z,6088.00
2022-09-06T09:36:00.258Z,6368.00
2022-09-06T09:38:07.857Z,5852.00
2022-09-06T09:39:01.200Z,7288.00
2022-09-06T09:40:00.360Z,28224.00
2022-09-06T09:41:00.207Z,24416.00
2022-09-06T09:42:00.202Z,23136.00
2022-09-06T09:43:00.165Z,15360.00
2022-09-06T09:44:04.452Z,7676.00
2022-09-06T09:45:00.147Z,7288.00
2022-09-06T09:46:00.147Z,4420.00
2022-09-06T09:47:00.233Z,4160.00
2022-09-06T09:48:00.112Z,3840.00
2022-09-06T09:49:00.104Z,5272.00
2022-09-06T09:50:00.089Z,5940.00
2022-09-06T09:51:00.077Z,4532.00
2022-09-06T09:52:00.088Z,4436.00
2022-09-06T09:53:00.069Z,3728.00
2022-09-06T09:54:00.031Z,4128.00
2022-09-06T09:55:00.076Z,4952.00
2022-09-06T09:56:00.014Z,3916.00
2022-09-06T09:57:00.055Z,3556.00
2022-09-06T09:57:59.991Z,5508.00
2022-09-06T09:58:59.980Z,5564.00
2022-09-06T09:59:59.989Z,4928.00
2022-09-06T10:00:59.997Z,6708.00
2022-09-06T10:01:59.969Z,5540.00
2022-09-06T10:02:59.977Z,7104.00
2022-09-06T10:05:00.919Z,11560.00
2022-09-06T10:06:02.700Z,5752.00
2022-09-06T10:08:00.875Z,2920.00
2022-09-06T10:08:59.898Z,2636.00
2022-09-06T10:09:59.874Z,2252.00
2022-09-06T10:10:59.846Z,2320.00
2022-09-06T10:11:59.868Z,2224.00
2022-09-06T10:12:59.818Z,2396.00
2022-09-06T10:13:59.812Z,2276.00
2022-09-06T10:15:02.409Z,2368.00
2022-09-06T10:16:00.825Z,2404.00
2022-09-06T10:16:59.800Z,2804.00
2022-09-06T10:17:59.767Z,2788.00
2022-09-06T10:18:59.774Z,3064.00
2022-09-06T10:19:59.740Z,2624.00
2022-09-06T10:20:59.876Z,2512.00
2022-09-06T10:21:59.746Z,2212.00
2022-09-06T10:22:59.708Z,2116.00
2022-09-06T10:25:00.694Z,2100.00
2022-09-06T10:25:59.679Z,2280.00
2022-09-06T10:26:59.676Z,2324.00
2022-09-06T10:28:10.931Z,2052.00
2022-09-06T10:29:00.641Z,1940.00
2022-09-06T10:29:59.633Z,1968.00
2022-09-06T10:30:59.678Z,2100.00
2022-09-06T10:31:59.629Z,2276.00
2022-09-06T10:32:59.597Z,2496.00
2022-09-06T10:33:59.600Z,2656.00
2022-09-06T10:34:59.652Z,2500.00
2022-09-06T10:35:59.567Z,2388.00
2022-09-06T10:36:59.612Z,2476.00
2022-09-06T10:37:59.544Z,2360.00
2022-09-06T10:39:03.767Z,2280.00
2022-09-06T10:39:59.543Z,2252.00
2022-09-06T10:40:59.503Z,2124.00
2022-09-06T10:41:59.526Z,2168.00
2022-09-06T10:42:59.488Z,2112.00
2022-09-06T10:43:59.473Z,2368.00
2022-09-06T10:44:59.466Z,2244.00
2022-09-06T10:45:59.442Z,2320.00
2022-09-06T10:46:59.477Z,2168.00
2022-09-06T10:47:59.435Z,2012.00
2022-09-06T10:48:59.427Z,1968.00
2022-09-06T10:49:59.465Z,1812.00
2022-09-06T10:50:59.397Z,1716.00
2022-09-06T10:51:59.409Z,1612.00
2022-09-06T10:52:59.375Z,1572.00
2022-09-06T10:53:59.351Z,1520.00
2022-09-06T10:54:59.349Z,1520.00
2022-09-06T10:56:01.460Z,1432.00
2022-09-06T10:56:59.329Z,1364.00
2022-09-06T10:58:29.325Z,1320.00
2022-09-06T11:00:00.294Z,1176.00
2022-09-06T11:00:59.306Z,1216.00
2022-09-06T11:01:59.383Z,1168.00
2022-09-06T11:04:04.422Z,1160.00
2022-09-06T11:06:00.213Z,1100.00
2022-09-06T11:06:59.225Z,1156.00
2022-09-06T11:09:00.285Z,1192.00
2022-09-06T11:09:59.176Z,1208.00
2022-09-06T11:10:59.162Z,1260.00
2022-09-06T11:11:59.155Z,1288.00
2022-09-06T11:12:59.166Z,1440.00
2022-09-06T11:14:02.555Z,1300.00
2022-09-06T11:15:00.153Z,1392.00
2022-09-06T11:15:59.140Z,1520.00
2022-09-06T11:16:59.133Z,1624.00
2022-09-06T11:18:00.055Z,1736.00
2022-09-06T11:18:59.083Z,1844.00
2022-09-06T11:19:59.061Z,1920.00
2022-09-06T11:20:59.084Z,1944.00
2022-09-06T11:21:59.032Z,1980.00
2022-09-06T11:22:59.094Z,2060.00
2022-09-06T11:23:59.094Z,1992.00
2022-09-06T11:24:59.002Z,1936.00
2022-09-06T11:25:58.988Z,1836.00
2022-09-06T11:26:58.982Z,1708.00
2022-09-06T11:27:58.983Z,1652.00
2022-09-06T11:28:58.953Z,1540.00
2022-09-06T11:29:58.946Z,1444.00
2022-09-06T11:30:59.033Z,1316.00
2022-09-06T11:32:59.947Z,1176.00
2022-09-06T11:34:01.236Z,1120.00
2022-09-06T11:34:58.903Z,1064.00
2022-09-06T11:35:58.876Z,1032.00
2022-09-06T11:36:58.917Z,932.00
2022-09-06T11:37:58.875Z,928.00
2022-09-06T11:38:58.858Z,964.00
2022-09-06T11:40:59.841Z,944.00
2022-09-06T11:41:58.825Z,936.00
2022-09-06T11:42:58.843Z,952.00
2022-09-06T11:43:58.788Z,932.00
2022-09-06T11:44:58.844Z,908.00
2022-09-06T11:45:58.831Z,1000.00
2022-09-06T11:46:58.778Z,928.00
2022-09-06T11:47:58.810Z,924.00
2022-09-06T11:48:58.769Z,948.00
2022-09-06T11:49:58.728Z,936.00
2022-09-06T11:50:58.731Z,960.00
2022-09-06T11:51:58.715Z,948.00
2022-09-06T11:52:58.787Z,940.00
2022-09-06T11:53:58.695Z,972.00
2022-09-06T11:54:58.692Z,972.00
2022-09-06T11:55:58.655Z,964.00
2022-09-06T11:56:58.645Z,936.00
2022-09-06T11:57:58.662Z,948.00
2022-09-06T11:58:58.624Z,928.00
2022-09-06T11:59:58.694Z,960.00
2022-09-06T12:00:58.601Z,984.00
2022-09-06T12:01:58.618Z,960.00
2022-09-06T12:05:00.391Z,1032.00
2022-09-06T12:05:58.552Z,1000.00
2022-09-06T12:06:58.522Z,980.00
2022-09-06T12:07:58.530Z,964.00
2022-09-06T12:08:58.527Z,972.00
2022-09-06T12:09:58.514Z,964.00
2022-09-06T12:10:58.509Z,964.00
2022-09-06T12:11:58.493Z,928.00
2022-09-06T12:12:58.465Z,948.00
2022-09-06T12:13:58.474Z,940.00
2022-09-06T12:14:58.441Z,940.00
2022-09-06T12:15:58.501Z,976.00
2022-09-06T12:16:58.429Z,960.00
2022-09-06T12:17:58.405Z,976.00
2022-09-06T12:18:58.459Z,1012.00
2022-09-06T12:19:58.400Z,1172.00
2022-09-06T12:20:58.383Z,1036.00
2022-09-06T12:21:58.437Z,1004.00
2022-09-06T12:22:58.365Z,976.00
2022-09-06T12:23:58.368Z,960.00
2022-09-06T12:24:58.358Z,932.00
2022-09-06T12:25:58.316Z,924.00
2022-09-06T12:26:58.366Z,908.00
2022-09-06T12:27:58.292Z,908.00
2022-09-06T12:28:58.279Z,928.00
2022-09-06T12:29:58.294Z,932.00
2022-09-06T12:30:58.297Z,912.00
2022-09-06T12:31:58.301Z,872.00
2022-09-06T12:32:58.232Z,900.00
2022-09-06T12:33:58.223Z,940.00
2022-09-06T12:35:59.835Z,908.00
2022-09-06T12:36:58.223Z,904.00
2022-09-06T12:37:58.175Z,884.00
2022-09-06T12:38:58.270Z,868.00
2022-09-06T12:39:58.234Z,860.00
2022-09-06T12:40:58.345Z,888.00
2022-09-06T12:41:58.201Z,972.00
2022-09-06T12:42:58.143Z,1008.00
2022-09-06T12:43:58.102Z,1032.00
2022-09-06T12:44:58.113Z,1044.00
2022-09-06T12:45:58.130Z,1024.00
2022-09-06T12:46:58.065Z,1024.00
2022-09-06T12:47:58.185Z,1040.00
2022-09-06T12:48:58.055Z,1008.00
2022-09-06T12:49:58.034Z,1016.00
2022-09-06T12:50:58.027Z,1032.00
2022-09-06T12:51:58.064Z,1056.00
2022-09-06T12:52:58.034Z,1048.00
2022-09-06T12:53:58.010Z,1072.00
2022-09-06T12:54:57.980Z,1084.00
2022-09-06T12:55:58.014Z,1088.00
2022-09-06T12:56:57.961Z,1092.00
2022-09-06T12:57:57.949Z,1136.00
2022-09-06T12:58:57.982Z,1192.00
2022-09-06T12:59:57.925Z,1236.00
2022-09-06T13:00:57.990Z,1188.00